Time;durP1;ratioP1;P1;durP2;ratioP2;P2;SDS_P1;SDS_P2;PMS_P1;PMS_P2;Temp;Humidity;BMP_temperature;BMP_pressure;BME280_temperature;BME280_humidity;BME280_pressure;Samples;Min_cycle;Max_cycle;Signal;HPM_P1;HPM_P2
2023/09/10 00:01:58;;;;;;;;;;;25.80;1.00;;;;;;4954658;28;19954;-61
2023/09/10 00:04:26;;;;;;;;;;;25.80;1.00;;;;;;4954640;28;20031;-61
2023/09/10 00:06:53;;;;;;;;;;;25.80;1.00;;;;;;4954188;28;19933;-61
2023/09/10 00:09:20;;;;;;;;;;;25.80;1.00;;;;;;4954558;28;19930;-60
2023/09/10 00:11:47;;;;;;;;;;;25.80;1.00;;;;;;4954496;28;19966;-61
2023/09/10 00:14:13;;;;;;;;;;;25.80;1.00;;;;;;4954429;28;20302;-61
2023/09/10 00:16:40;;;;;;;;;;;25.80;1.00;;;;;;4954000;28;20352;-60
2023/09/10 00:19:07;;;;;;;;;;;25.80;1.00;;;;;;4954441;28;19930;-61
2023/09/10 00:21:34;;;;;;;;;;;25.80;1.00;;;;;;4954422;28;19927;-59
2023/09/10 00:24:01;;;;;;;;;;;25.80;1.00;;;;;;4951996;28;19927;-60
2023/09/10 00:26:28;;;;;;;;;;;25.80;1.00;;;;;;5075844;23;20547;-61
2023/09/10 00:28:54;;;;;;;;;;;25.80;1.00;;;;;;4938128;29;20287;-61
2023/09/10 00:31:21;;;;;;;;;;;25.80;1.00;;;;;;4935194;29;19933;-60
2023/09/10 00:33:48;;;;;;;;;;;25.80;1.00;;;;;;4935135;29;19927;-60
2023/09/10 00:36:15;;;;;;;;;;;25.80;1.00;;;;;;4917474;29;19934;-58
2023/09/10 00:38:42;;;;;;;;;;;25.80;1.00;;;;;;4934052;29;20022;-60
2023/09/10 00:41:08;;;;;;;;;;;25.80;1.00;;;;;;4917886;29;19927;-62
2023/09/10 00:43:35;;;;;;;;;;;25.70;1.00;;;;;;4934898;29;19954;-62
2023/09/10 00:46:03;;;;;;;;;;;25.70;1.00;;;;;;4933130;29;19927;-61
2023/09/10 00:48:32;;;;;;;;;;;25.70;1.00;;;;;;4934882;29;19943;-62
2023/09/10 00:50:58;;;;;;;;;;;25.70;1.00;;;;;;4933965;29;19926;-62
2023/09/10 00:53:25;;;;;;;;;;;25.70;1.00;;;;;;4934843;29;20403;-62
2023/09/10 00:55:52;;;;;;;;;;;25.70;1.00;;;;;;4933296;29;19927;-63
2023/09/10 00:58:19;;;;;;;;;;;25.70;1.00;;;;;;4917695;29;19926;-61
2023/09/10 01:00:46;;;;;;;;;;;25.70;1.00;;;;;;4933755;29;19931;-60
2023/09/10 01:03:14;;;;;;;;;;;25.70;1.00;;;;;;4917708;29;19934;-59
2023/09/10 01:05:41;;;;;;;;;;;25.70;1.00;;;;;;4934430;29;19975;-61
2023/09/10 01:08:08;;;;;;;;;;;25.70;1.00;;;;;;4934722;29;19930;-61
2023/09/10 01:10:47;;;;;;;;;;;25.70;1.00;;;;;;4918049;29;19966;-62
2023/09/10 01:13:32;;;;;;;;;;;25.70;1.00;;;;;;4934664;29;20009;-58
2023/09/10 01:16:02;;;;;;;;;;;25.70;1.00;;;;;;4933119;29;19927;-59
2023/09/10 01:18:44;;;;;;;;;;;25.70;1.00;;;;;;4933639;29;19930;-60
2023/09/10 01:21:14;;;;;;;;;;;25.70;1.00;;;;;;4917526;29;20275;-60
2023/09/10 01:23:53;;;;;;;;;;;25.70;1.00;;;;;;4934938;29;20034;-61
2023/09/10 01:26:19;;;;;;;;;;;25.70;1.00;;;;;;4932903;29;20346;-60
2023/09/10 01:28:46;;;;;;;;;;;25.70;1.00;;;;;;4935122;29;19927;-61
2023/09/10 01:31:13;;;;;;;;;;;25.70;1.00;;;;;;4933219;29;19981;-61
2023/09/10 01:33:46;;;;;;;;;;;25.70;1.00;;;;;;4933501;29;19934;-60
2023/09/10 01:36:48;;;;;;;;;;;25.70;1.00;;;;;;4934232;29;19974;-60
2023/09/10 01:39:23;;;;;;;;;;;25.70;1.00;;;;;;4876516;29;20036;-63
2023/09/10 01:41:50;;;;;;;;;;;25.70;1.00;;;;;;4912897;29;19933;-61
2023/09/10 01:44:18;;;;;;;;;;;25.70;1.00;;;;;;4937966;29;19986;-58
2023/09/10 01:46:45;;;;;;;;;;;25.70;1.00;;;;;;4937562;29;19930;-59
2023/09/10 01:49:12;;;;;;;;;;;25.70;1.00;;;;;;4937684;29;19927;-60
2023/09/10 01:51:39;;;;;;;;;;;25.70;1.00;;;;;;4937898;29;20335;-61
2023/09/10 01:54:06;;;;;;;;;;;25.70;1.00;;;;;;4936419;29;19934;-60
2023/09/10 01:56:33;;;;;;;;;;;25.70;1.00;;;;;;4936104;29;19934;-58
2023/09/10 01:58:59;;;;;;;;;;;25.70;1.00;;;;;;4920742;29;19974;-59
2023/09/10 02:01:26;;;;;;;;;;;25.60;1.00;;;;;;4928782;29;20009;-59
2023/09/10 02:03:53;;;;;;;;;;;25.60;1.00;;;;;;4937890;29;19938;-61
2023/09/10 02:06:20;;;;;;;;;;;25.60;1.00;;;;;;4935789;29;19927;-59
2023/09/10 02:08:47;;;;;;;;;;;25.60;1.00;;;;;;4936436;29;20030;-59
2023/09/10 02:11:13;;;;;;;;;;;25.70;1.00;;;;;;4936210;29;20391;-61
2023/09/10 02:13:41;;;;;;;;;;;25.60;1.00;;;;;;4936282;29;20037;-58
2023/09/10 02:16:08;;;;;;;;;;;25.60;1.00;;;;;;4935690;29;20358;-61
2023/09/10 02:18:35;;;;;;;;;;;25.60;1.00;;;;;;4937384;29;19934;-60
2023/09/10 02:21:07;;;;;;;;;;;25.60;1.00;;;;;;4935938;29;20014;-59
2023/09/10 02:23:34;;;;;;;;;;;25.60;1.00;;;;;;4920418;29;19927;-60
2023/09/10 02:26:01;;;;;;;;;;;25.60;1.00;;;;;;4935549;29;20413;-59
2023/09/10 02:28:28;;;;;;;;;;;25.60;1.00;;;;;;4937183;29;19926;-59
2023/09/10 02:30:55;;;;;;;;;;;25.60;1.00;;;;;;4937125;29;19961;-57
2023/09/10 02:33:23;;;;;;;;;;;25.60;1.00;;;;;;4935791;29;19933;-60
2023/09/10 02:35:50;;;;;;;;;;;25.60;1.00;;;;;;4935507;29;19927;-60
2023/09/10 02:38:17;;;;;;;;;;;25.60;1.00;;;;;;4935750;29;19977;-61
2023/09/10 02:40:43;;;;;;;;;;;25.60;1.00;;;;;;4936826;29;19926;-61
2023/09/10 02:43:10;;;;;;;;;;;25.60;1.00;;;;;;4936841;29;19934;-58
2023/09/10 02:45:37;;;;;;;;;;;25.60;1.00;;;;;;4935511;29;20033;-61
2023/09/10 02:48:04;;;;;;;;;;;25.60;1.00;;;;;;4936785;29;19927;-59
2023/09/10 02:50:31;;;;;;;;;;;25.60;1.00;;;;;;4935426;29;19934;-59
2023/09/10 02:52:58;;;;;;;;;;;25.50;1.00;;;;;;4935604;29;19981;-61
2023/09/10 02:55:24;;;;;;;;;;;25.50;1.00;;;;;;4936651;29;19934;-61
2023/09/10 02:57:51;;;;;;;;;;;25.50;1.00;;;;;;4935245;29;19958;-60
2023/09/10 03:00:22;;;;;;;;;;;25.50;1.00;;;;;;4935315;29;20400;-61
2023/09/10 03:02:53;;;;;;;;;;;25.50;1.00;;;;;;4935353;29;19931;-60
2023/09/10 03:05:20;;;;;;;;;;;25.50;1.00;;;;;;4935237;29;20358;-59
2023/09/10 03:07:51;;;;;;;;;;;25.50;1.00;;;;;;4934876;29;19931;-59
2023/09/10 03:10:18;;;;;;;;;;;25.50;1.00;;;;;;4919323;29;19934;-60
2023/09/10 03:12:45;;;;;;;;;;;25.50;1.00;;;;;;4935157;29;20022;-61
2023/09/10 03:15:13;;;;;;;;;;;25.50;1.00;;;;;;4919310;29;19927;-60
2023/09/10 03:17:40;;;;;;;;;;;25.50;1.00;;;;;;4934604;29;19939;-60
2023/09/10 03:20:09;;;;;;;;;;;25.50;1.00;;;;;;4934918;29;19933;-62
2023/09/10 03:22:36;;;;;;;;;;;25.50;1.00;;;;;;4935116;29;19938;-62
2023/09/10 03:25:03;;;;;;;;;;;25.50;1.00;;;;;;4919124;29;19953;-62
2023/09/10 03:27:30;;;;;;;;;;;25.50;1.00;;;;;;4935684;29;19927;-61
2023/09/10 03:29:57;;;;;;;;;;;25.50;1.00;;;;;;4936093;29;20383;-62
2023/09/10 03:32:24;;;;;;;;;;;25.50;1.00;;;;;;4934819;29;20449;-61
2023/09/10 03:34:51;;;;;;;;;;;25.50;1.00;;;;;;4918863;29;19926;-61
2023/09/10 03:37:18;;;;;;;;;;;25.50;1.00;;;;;;4984043;23;20291;-61
2023/09/10 03:39:45;;;;;;;;;;;25.50;1.00;;;;;;4938028;29;19926;-61
2023/09/10 03:42:11;;;;;;;;;;;25.50;1.00;;;;;;4937845;29;19930;-62
2023/09/10 03:44:38;;;;;;;;;;;25.50;1.00;;;;;;4955133;29;19954;-61
2023/09/10 03:47:05;;;;;;;;;;;25.50;1.00;;;;;;4937477;29;19927;-61
2023/09/10 03:49:34;;;;;;;;;;;25.50;1.00;;;;;;4937477;29;19937;-60
2023/09/10 03:52:13;;;;;;;;;;;25.50;1.00;;;;;;4937751;29;19930;-62
2023/09/10 03:54:40;;;;;;;;;;;25.50;1.00;;;;;;4954790;29;19949;-63
2023/09/10 03:57:06;;;;;;;;;;;25.40;1.00;;;;;;4937375;29;20386;-62
2023/09/10 03:59:33;;;;;;;;;;;25.40;1.00;;;;;;4937587;29;19937;-63
2023/09/10 04:02:00;;;;;;;;;;;25.40;1.00;;;;;;4937583;29;20182;-63
2023/09/10 04:04:27;;;;;;;;;;;25.40;1.00;;;;;;4937723;29;19965;-62
2023/09/10 04:06:54;;;;;;;;;;;25.40;1.00;;;;;;4939879;29;19947;-61
2023/09/10 04:09:21;;;;;;;;;;;25.40;1.00;;;;;;4953941;29;20314;-61
2023/09/10 04:11:48;;;;;;;;;;;25.40;1.00;;;;;;4955291;28;19933;-61
2023/09/10 04:14:14;;;;;;;;;;;25.40;1.00;;;;;;4955326;28;20306;-61
2023/09/10 04:16:41;;;;;;;;;;;25.40;1.00;;;;;;4969657;28;19926;-61
2023/09/10 04:19:08;;;;;;;;;;;25.40;1.00;;;;;;4953799;29;19927;-61
2023/09/10 04:21:34;;;;;;;;;;;25.40;1.00;;;;;;4970000;28;19927;-61
2023/09/10 04:24:01;;;;;;;;;;;25.40;1.00;;;;;;4970119;28;20386;-61
2023/09/10 04:26:28;;;;;;;;;;;25.40;1.00;;;;;;4954644;28;20355;-60
2023/09/10 04:28:55;;;;;;;;;;;25.40;1.00;;;;;;4953920;29;20409;-61
2023/09/10 04:31:22;;;;;;;;;;;25.40;1.00;;;;;;4953752;29;19957;-59
2023/09/10 04:33:49;;;;;;;;;;;25.40;1.00;;;;;;4953658;29;19976;-61
2023/09/10 04:36:16;;;;;;;;;;;25.40;1.00;;;;;;4953906;28;20359;-61
2023/09/10 04:38:43;;;;;;;;;;;25.40;1.00;;;;;;4960463;28;19974;-61
2023/09/10 04:41:10;;;;;;;;;;;25.40;1.00;;;;;;4953142;29;19949;-61
2023/09/10 04:43:37;;;;;;;;;;;25.40;1.00;;;;;;4952860;29;19934;-61
2023/09/10 04:46:04;;;;;;;;;;;25.40;1.00;;;;;;4936514;29;19949;-61
2023/09/10 04:48:33;;;;;;;;;;;25.40;1.00;;;;;;4936333;29;21402;-61
2023/09/10 04:51:00;;;;;;;;;;;25.40;1.00;;;;;;4936897;29;19927;-61
2023/09/10 04:53:27;;;;;;;;;;;25.40;1.00;;;;;;4954080;29;19941;-61
2023/09/10 04:55:54;;;;;;;;;;;25.40;1.00;;;;;;4968520;28;19933;-61
2023/09/10 04:58:23;;;;;;;;;;;25.40;1.00;;;;;;4952702;29;19933;-61
2023/09/10 05:00:50;;;;;;;;;;;25.40;1.00;;;;;;4952769;29;19927;-60
2023/09/10 05:03:20;;;;;;;;;;;25.40;1.00;;;;;;4952549;29;19977;-59
2023/09/10 05:05:47;;;;;;;;;;;25.40;1.00;;;;;;4966941;28;19926;-61
2023/09/10 05:08:14;;;;;;;;;;;25.40;1.00;;;;;;4936074;29;20320;-61
2023/09/10 05:10:46;;;;;;;;;;;25.30;1.00;;;;;;4952721;29;19934;-61
2023/09/10 05:13:13;;;;;;;;;;;25.30;1.00;;;;;;4968506;28;19930;-61
2023/09/10 05:15:40;;;;;;;;;;;25.30;1.00;;;;;;4955661;29;19973;-61
2023/09/10 05:18:07;;;;;;;;;;;25.30;1.00;;;;;;4957509;28;19930;-61
2023/09/10 05:20:34;;;;;;;;;;;25.30;1.00;;;;;;4957731;28;19937;-59
2023/09/10 05:23:01;;;;;;;;;;;25.30;1.00;;;;;;4972419;28;19927;-61
2023/09/10 05:25:28;;;;;;;;;;;25.30;1.00;;;;;;4956165;29;20404;-60
2023/09/10 05:27:55;;;;;;;;;;;25.30;1.00;;;;;;4955834;29;19926;-61
2023/09/10 05:30:22;;;;;;;;;;;25.30;1.00;;;;;;4952493;28;19973;-60
2023/09/10 05:32:49;;;;;;;;;;;25.30;1.00;;;;;;4957070;29;20021;-60
2023/09/10 05:35:16;;;;;;;;;;;25.30;1.00;;;;;;4957246;29;19926;-61
2023/09/10 05:37:43;;;;;;;;;;;25.30;1.00;;;;;;4956503;28;20437;-59
2023/09/10 05:40:10;;;;;;;;;;;25.30;1.00;;;;;;4940896;29;19926;-60
2023/09/10 05:42:37;;;;;;;;;;;25.20;1.00;;;;;;4940880;29;19930;-61
2023/09/10 05:45:04;;;;;;;;;;;25.20;1.00;;;;;;4947294;29;19931;-62
2023/09/10 05:47:31;;;;;;;;;;;25.20;1.00;;;;;;4936034;29;19931;-60
2023/09/10 05:49:59;;;;;;;;;;;25.20;1.00;;;;;;4940405;29;19977;-60
2023/09/10 05:52:26;;;;;;;;;;;25.20;1.00;;;;;;4955665;29;19932;-60
2023/09/10 05:54:53;;;;;;;;;;;25.20;1.00;;;;;;4968833;28;20038;-61
2023/09/10 05:57:20;;;;;;;;;;;25.20;1.00;;;;;;4952929;28;19926;-60
2023/09/10 05:59:47;;;;;;;;;;;25.20;1.00;;;;;;4950800;28;19934;-61
2023/09/10 06:02:14;;;;;;;;;;;25.20;1.00;;;;;;4956661;29;19938;-60
2023/09/10 06:04:41;;;;;;;;;;;25.20;1.00;;;;;;4939518;29;19926;-61
2023/09/10 06:07:08;;;;;;;;;;;25.10;1.00;;;;;;4923318;29;20029;-60
2023/09/10 06:09:35;;;;;;;;;;;25.10;1.00;;;;;;4939387;29;19941;-61
2023/09/10 06:12:03;;;;;;;;;;;25.20;1.00;;;;;;4939682;29;20286;-60
2023/09/10 06:14:33;;;;;;;;;;;25.10;1.00;;;;;;4939264;29;19926;-61
2023/09/10 06:17:02;;;;;;;;;;;25.10;1.00;;;;;;4939277;29;19931;-61
2023/09/10 06:19:30;;;;;;;;;;;25.10;1.00;;;;;;4939166;29;19972;-60
2023/09/10 06:21:57;;;;;;;;;;;25.10;1.00;;;;;;4939146;29;20383;-62
2023/09/10 06:24:24;;;;;;;;;;;25.10;1.00;;;;;;4954731;28;20386;-59
2023/09/10 06:26:51;;;;;;;;;;;25.10;1.00;;;;;;4939611;29;19933;-59
2023/09/10 06:29:18;;;;;;;;;;;25.10;1.00;;;;;;4941625;29;19926;-59
2023/09/10 06:31:45;;;;;;;;;;;25.10;1.00;;;;;;4939801;29;20360;-61
2023/09/10 06:34:12;;;;;;;;;;;25.10;1.00;;;;;;4941474;29;19982;-60
2023/09/10 06:36:39;;;;;;;;;;;25.10;1.00;;;;;;4939379;29;19933;-59
2023/09/10 06:39:06;;;;;;;;;;;25.10;1.00;;;;;;4955869;29;19933;-59
2023/09/10 06:41:32;;;;;;;;;;;25.10;1.00;;;;;;4937603;29;20086;-60
2023/09/10 06:43:59;;;;;;;;;;;25.10;1.00;;;;;;4955623;28;19933;-61
2023/09/10 06:46:28;;;;;;;;;;;25.10;1.00;;;;;;5117850;23;20164;-61
2023/09/10 06:48:54;;;;;;;;;;;25.10;1.00;;;;;;4966542;28;20005;-62
2023/09/10 06:51:21;;;;;;;;;;;25.10;1.00;;;;;;4972571;28;20013;-60
2023/09/10 06:53:48;;;;;;;;;;;25.10;1.00;;;;;;4970534;28;20002;-61
2023/09/10 06:56:15;;;;;;;;;;;25.10;1.00;;;;;;4964273;28;20037;-62
2023/09/10 06:58:41;;;;;;;;;;;25.10;1.00;;;;;;4968572;28;20017;-61
2023/09/10 07:01:09;;;;;;;;;;;25.10;1.00;;;;;;4975154;28;19926;-62
2023/09/10 07:03:38;;;;;;;;;;;25.10;1.00;;;;;;4975024;28;19930;-61
2023/09/10 07:06:05;;;;;;;;;;;25.10;1.00;;;;;;4974688;28;19926;-62
2023/09/10 07:08:32;;;;;;;;;;;25.10;1.00;;;;;;4974932;28;20333;-62
2023/09/10 07:10:59;;;;;;;;;;;25.10;1.00;;;;;;4974958;28;20312;-62
2023/09/10 07:13:25;;;;;;;;;;;25.10;1.00;;;;;;4974677;28;19930;-59
2023/09/10 07:15:52;;;;;;;;;;;25.10;1.00;;;;;;4973307;28;19957;-62
2023/09/10 07:18:19;;;;;;;;;;;25.10;1.00;;;;;;4973645;28;19949;-62
2023/09/10 07:20:46;;;;;;;;;;;25.10;1.00;;;;;;4974516;28;19950;-61
2023/09/10 07:23:12;;;;;;;;;;;25.10;1.00;;;;;;4974910;28;19933;-61
2023/09/10 07:25:39;;;;;;;;;;;25.10;1.00;;;;;;4974390;28;19926;-61
2023/09/10 07:28:06;;;;;;;;;;;25.10;1.00;;;;;;4972115;28;19985;-61
2023/09/10 07:30:33;;;;;;;;;;;25.10;1.00;;;;;;4969261;28;19949;-61
2023/09/10 07:33:00;;;;;;;;;;;25.10;1.00;;;;;;4974796;28;19933;-60
2023/09/10 07:35:27;;;;;;;;;;;25.10;1.00;;;;;;4963766;28;20421;-61
2023/09/10 07:37:54;;;;;;;;;;;25.10;1.00;;;;;;4973106;28;19926;-61
2023/09/10 07:40:21;;;;;;;;;;;25.10;1.00;;;;;;4974331;28;20382;-61
2023/09/10 07:42:48;;;;;;;;;;;25.10;1.00;;;;;;4974158;28;19926;-60
2023/09/10 07:45:15;;;;;;;;;;;25.10;1.00;;;;;;4964233;28;19926;-61
2023/09/10 07:47:41;;;;;;;;;;;25.10;1.00;;;;;;4963758;28;19926;-59
2023/09/10 07:50:09;;;;;;;;;;;25.10;1.00;;;;;;4973873;28;19926;-61
2023/09/10 07:52:35;;;;;;;;;;;25.10;1.00;;;;;;4972764;28;19926;-61
2023/09/10 07:55:02;;;;;;;;;;;25.10;1.00;;;;;;4974511;28;19941;-61
2023/09/10 07:57:29;;;;;;;;;;;25.10;1.00;;;;;;4968297;28;20012;-61
2023/09/10 07:59:56;;;;;;;;;;;25.10;1.00;;;;;;4964917;28;19926;-61
2023/09/10 08:02:26;;;;;;;;;;;25.10;1.00;;;;;;4974304;28;19930;-61
2023/09/10 08:04:53;;;;;;;;;;;25.10;1.00;;;;;;4973618;28;20378;-61
2023/09/10 08:07:20;;;;;;;;;;;25.10;1.00;;;;;;4969331;28;20311;-61
2023/09/10 08:09:47;;;;;;;;;;;25.20;1.00;;;;;;4970948;28;19937;-60
2023/09/10 08:12:14;;;;;;;;;;;25.20;1.00;;;;;;4974065;28;19926;-61
2023/09/10 08:14:41;;;;;;;;;;;25.20;1.00;;;;;;4974009;28;19926;-61
2023/09/10 08:17:08;;;;;;;;;;;25.20;1.00;;;;;;4972257;28;19926;-61
2023/09/10 08:19:35;;;;;;;;;;;25.20;1.00;;;;;;4973933;28;19933;-59
2023/09/10 08:22:02;;;;;;;;;;;25.20;1.00;;;;;;4968028;28;19936;-61
2023/09/10 08:24:29;;;;;;;;;;;25.20;1.00;;;;;;4965804;28;19933;-62
2023/09/10 08:26:57;;;;;;;;;;;25.30;1.00;;;;;;4963648;28;20337;-61
2023/09/10 08:29:24;;;;;;;;;;;25.30;1.00;;;;;;4973690;28;20110;-62
2023/09/10 08:31:51;;;;;;;;;;;25.30;1.00;;;;;;4973343;28;19981;-62
2023/09/10 08:34:17;;;;;;;;;;;25.30;1.00;;;;;;4974131;28;19973;-61
2023/09/10 08:36:44;;;;;;;;;;;25.30;1.00;;;;;;4973090;28;20296;-60
2023/09/10 08:39:11;;;;;;;;;;;25.30;1.00;;;;;;4973397;28;19926;-61
2023/09/10 08:42:16;;;;;;;;;;;25.30;1.00;;;;;;4973379;28;20329;-61
2023/09/10 08:44:46;;;;;;;;;;;25.30;1.00;;;;;;4913535;29;19934;-60
2023/09/10 08:47:15;;;;;;;;;;;25.40;1.00;;;;;;4913024;29;20399;-61
2023/09/10 08:49:43;;;;;;;;;;;25.40;1.00;;;;;;4946461;28;20023;-61
2023/09/10 08:52:10;;;;;;;;;;;25.40;1.00;;;;;;4977352;28;19962;-61
2023/09/10 08:54:37;;;;;;;;;;;25.40;1.00;;;;;;4977242;28;19930;-61
2023/09/10 08:57:04;;;;;;;;;;;25.40;1.00;;;;;;4976716;28;19976;-61
2023/09/10 08:59:31;;;;;;;;;;;25.40;1.00;;;;;;4977404;28;19962;-61
2023/09/10 09:01:58;;;;;;;;;;;25.40;1.00;;;;;;4977170;28;20402;-61
2023/09/10 09:04:26;;;;;;;;;;;25.40;1.00;;;;;;4977032;28;19932;-61
2023/09/10 09:06:55;;;;;;;;;;;25.40;1.00;;;;;;4976452;28;20038;-61
2023/09/10 09:09:24;;;;;;;;;;;25.40;1.00;;;;;;4976904;28;19926;-61
2023/09/10 09:11:52;;;;;;;;;;;25.40;1.00;;;;;;4976737;28;20024;-61
2023/09/10 09:14:20;;;;;;;;;;;25.40;1.00;;;;;;4977140;28;19933;-61
2023/09/10 09:16:47;;;;;;;;;;;25.40;1.00;;;;;;4976505;28;19934;-60
2023/09/10 09:19:16;;;;;;;;;;;25.40;1.00;;;;;;4977311;28;20278;-58
2023/09/10 09:21:42;;;;;;;;;;;25.40;1.00;;;;;;4976691;28;19937;-59
2023/09/10 09:24:10;;;;;;;;;;;25.40;1.00;;;;;;4976795;28;20309;-61
2023/09/10 09:26:39;;;;;;;;;;;25.40;1.00;;;;;;4976364;28;19926;-60
2023/09/10 09:29:06;;;;;;;;;;;25.40;1.00;;;;;;4969469;28;19926;-62
2023/09/10 09:31:33;;;;;;;;;;;25.50;1.00;;;;;;4976668;28;20046;-62
2023/09/10 09:34:00;;;;;;;;;;;25.50;1.00;;;;;;4976570;28;19973;-60
2023/09/10 09:36:28;;;;;;;;;;;25.50;1.00;;;;;;4976256;28;20409;-60
2023/09/10 09:38:55;;;;;;;;;;;25.50;1.00;;;;;;4976456;28;20016;-61
2023/09/10 09:41:22;;;;;;;;;;;25.50;1.00;;;;;;4976464;28;19932;-61
2023/09/10 09:43:49;;;;;;;;;;;25.50;1.00;;;;;;4976199;28;20274;-61
2023/09/10 09:46:16;;;;;;;;;;;25.50;1.00;;;;;;4976108;28;20337;-61
2023/09/10 09:48:43;;;;;;;;;;;25.50;1.00;;;;;;4976200;28;19926;-60
2023/09/10 09:51:13;;;;;;;;;;;25.50;1.00;;;;;;4976307;28;19981;-61
2023/09/10 09:53:40;;;;;;;;;;;25.50;1.00;;;;;;4976278;28;20012;-60
2023/09/10 09:56:08;;;;;;;;;;;25.50;1.00;;;;;;5137772;23;19917;-61
2023/09/10 09:58:35;;;;;;;;;;;25.50;1.00;;;;;;4967262;28;19927;-61
2023/09/10 10:01:02;;;;;;;;;;;25.50;1.00;;;;;;4975314;28;19989;-61
2023/09/10 10:03:29;;;;;;;;;;;25.60;1.00;;;;;;4976512;28;20096;-59
2023/09/10 10:05:56;;;;;;;;;;;25.60;1.00;;;;;;4973716;28;20437;-61
2023/09/10 10:08:26;;;;;;;;;;;25.60;1.00;;;;;;4956592;29;19926;-61
2023/09/10 10:10:53;;;;;;;;;;;25.60;1.00;;;;;;4956600;29;20017;-61
2023/09/10 10:13:21;;;;;;;;;;;25.60;1.00;;;;;;4956934;29;20037;-62
2023/09/10 10:15:49;;;;;;;;;;;25.60;1.00;;;;;;4956329;28;20033;-62
2023/09/10 10:18:17;;;;;;;;;;;25.60;1.00;;;;;;4956552;29;20401;-62
2023/09/10 10:20:47;;;;;;;;;;;25.60;1.00;;;;;;4956493;29;19926;-62
2023/09/10 10:23:15;;;;;;;;;;;25.60;1.00;;;;;;4956538;29;19930;-62
2023/09/10 10:25:55;;;;;;;;;;;25.60;1.00;;;;;;4956049;28;19931;-62
2023/09/10 10:28:22;;;;;;;;;;;25.60;1.00;;;;;;4956378;29;19926;-61
2023/09/10 10:30:54;;;;;;;;;;;25.60;1.00;;;;;;4956236;29;19937;-60
2023/09/10 10:33:24;;;;;;;;;;;25.60;1.00;;;;;;4955157;29;19931;-61
2023/09/10 10:36:01;;;;;;;;;;;25.60;1.00;;;;;;4955903;28;19933;-61
2023/09/10 10:38:32;;;;;;;;;;;25.60;1.00;;;;;;4956251;29;20301;-61
2023/09/10 10:41:01;;;;;;;;;;;25.60;1.00;;;;;;4956112;29;20022;-61
2023/09/10 10:43:36;;;;;;;;;;;25.60;1.00;;;;;;4956127;29;19933;-61
2023/09/10 10:46:05;;;;;;;;;;;25.60;1.00;;;;;;4955835;28;19930;-61
2023/09/10 10:48:33;;;;;;;;;;;25.70;1.00;;;;;;4956461;29;20289;-61
2023/09/10 10:51:01;;;;;;;;;;;25.70;1.00;;;;;;4955925;29;19958;-61
2023/09/10 10:53:29;;;;;;;;;;;25.70;1.00;;;;;;4955743;29;19930;-59
2023/09/10 10:55:59;;;;;;;;;;;25.70;1.00;;;;;;4955567;28;20141;-61
2023/09/10 10:58:30;;;;;;;;;;;25.70;1.00;;;;;;4955768;29;20386;-60
2023/09/10 11:00:58;;;;;;;;;;;25.70;1.00;;;;;;4956246;29;19941;-61
2023/09/10 11:03:25;;;;;;;;;;;25.70;1.00;;;;;;4955627;29;19937;-61
2023/09/10 11:05:52;;;;;;;;;;;25.70;1.00;;;;;;4955396;28;20453;-59
2023/09/10 11:08:25;;;;;;;;;;;25.70;1.00;;;;;;4955575;29;19927;-61
2023/09/10 11:10:52;;;;;;;;;;;25.70;1.00;;;;;;4955685;28;19930;-61
2023/09/10 11:13:19;;;;;;;;;;;25.70;1.00;;;;;;4955454;29;19998;-61
2023/09/10 11:16:03;;;;;;;;;;;25.70;1.00;;;;;;4955139;28;19934;-61
2023/09/10 11:18:36;;;;;;;;;;;25.70;1.00;;;;;;4955503;29;19926;-61
2023/09/10 11:21:03;;;;;;;;;;;25.70;1.00;;;;;;4955325;29;19927;-61
2023/09/10 11:23:30;;;;;;;;;;;25.70;1.00;;;;;;4955293;29;19926;-61
2023/09/10 11:26:23;;;;;;;;;;;25.70;1.00;;;;;;4954991;28;19930;-61
2023/09/10 11:28:53;;;;;;;;;;;25.70;1.00;;;;;;4953155;29;19926;-61
2023/09/10 11:31:29;;;;;;;;;;;25.70;1.00;;;;;;4937255;29;20013;-61
2023/09/10 11:33:58;;;;;;;;;;;25.70;1.00;;;;;;4955352;29;19927;-61
2023/09/10 11:36:24;;;;;;;;;;;25.70;1.00;;;;;;4955199;28;19927;-62
2023/09/10 11:38:54;;;;;;;;;;;25.70;1.00;;;;;;4955429;29;20386;-62
2023/09/10 11:41:21;;;;;;;;;;;25.70;1.00;;;;;;4955509;29;19926;-61
2023/09/10 11:43:50;;;;;;;;;;;25.70;1.00;;;;;;4953628;29;19978;-60
2023/09/10 11:46:17;;;;;;;;;;;25.80;1.00;;;;;;4953218;28;20282;-62
2023/09/10 11:48:44;;;;;;;;;;;25.70;1.00;;;;;;4955089;29;19934;-62
2023/09/10 11:51:11;;;;;;;;;;;25.70;1.00;;;;;;4955132;29;19926;-62
2023/09/10 11:53:38;;;;;;;;;;;25.80;1.00;;;;;;4955136;29;19934;-62
2023/09/10 11:56:05;;;;;;;;;;;25.80;1.00;;;;;;4954811;28;20429;-61
2023/09/10 11:58:32;;;;;;;;;;;25.80;1.00;;;;;;4955032;29;19926;-61
2023/09/10 12:01:01;;;;;;;;;;;25.80;1.00;;;;;;4954508;29;19933;-61
2023/09/10 12:03:32;;;;;;;;;;;25.80;1.00;;;;;;4954956;28;20374;-62
2023/09/10 12:05:59;;;;;;;;;;;25.80;1.00;;;;;;4954616;28;19973;-59
2023/09/10 12:08:26;;;;;;;;;;;25.80;1.00;;;;;;4954944;29;19933;-62
2023/09/10 12:10:55;;;;;;;;;;;25.80;1.00;;;;;;4954908;29;20386;-62
2023/09/10 12:13:22;;;;;;;;;;;25.80;1.00;;;;;;4954905;29;19973;-62
2023/09/10 12:15:49;;;;;;;;;;;25.80;1.00;;;;;;4954607;28;19927;-62
2023/09/10 12:18:17;;;;;;;;;;;25.80;1.00;;;;;;4954692;29;19933;-62
2023/09/10 12:20:44;;;;;;;;;;;25.80;1.00;;;;;;4954915;29;19927;-61
2023/09/10 12:23:10;;;;;;;;;;;25.80;1.00;;;;;;4954109;28;19934;-62
2023/09/10 12:25:37;;;;;;;;;;;25.80;1.00;;;;;;4954583;29;19926;-61
2023/09/10 12:28:05;;;;;;;;;;;25.80;1.00;;;;;;4954224;28;20021;-62
2023/09/10 12:30:32;;;;;;;;;;;25.80;1.00;;;;;;4954718;29;20398;-62
2023/09/10 12:32:59;;;;;;;;;;;25.80;1.00;;;;;;4954425;29;19931;-59
2023/09/10 12:35:26;;;;;;;;;;;25.80;1.00;;;;;;4934130;29;19934;-62
2023/09/10 12:37:54;;;;;;;;;;;25.80;1.00;;;;;;4950638;28;20033;-62
2023/09/10 12:40:21;;;;;;;;;;;25.80;1.00;;;;;;4954409;29;19997;-62
2023/09/10 12:42:48;;;;;;;;;;;25.80;1.00;;;;;;4953780;29;19930;-62
2023/09/10 12:45:16;;;;;;;;;;;25.80;1.00;;;;;;4954439;29;19926;-61
2023/09/10 12:47:43;;;;;;;;;;;25.80;1.00;;;;;;4953936;28;19927;-61
2023/09/10 12:50:10;;;;;;;;;;;25.80;1.00;;;;;;4954426;29;19949;-62
2023/09/10 12:52:37;;;;;;;;;;;25.90;1.00;;;;;;4954398;29;19927;-62
2023/09/10 12:55:04;;;;;;;;;;;25.90;1.00;;;;;;4948791;29;20420;-62
2023/09/10 12:57:32;;;;;;;;;;;25.90;1.00;;;;;;4951537;28;19926;-61
2023/09/10 12:59:59;;;;;;;;;;;25.80;1.00;;;;;;4954304;29;19927;-61
2023/09/10 13:02:32;;;;;;;;;;;25.80;1.00;;;;;;4954142;29;19930;-61
2023/09/10 13:05:00;;;;;;;;;;;25.80;1.00;;;;;;4954147;29;19935;-60
2023/09/10 13:07:27;;;;;;;;;;;25.70;1.00;;;;;;4953819;29;19937;-61
2023/09/10 13:09:55;;;;;;;;;;;25.70;1.00;;;;;;4954225;29;19930;-61
2023/09/10 13:12:22;;;;;;;;;;;25.70;1.00;;;;;;4954293;29;20455;-61
2023/09/10 13:14:48;;;;;;;;;;;25.70;1.00;;;;;;4954239;29;19933;-61
2023/09/10 13:17:17;;;;;;;;;;;25.70;1.00;;;;;;4952317;28;19927;-61
2023/09/10 13:19:44;;;;;;;;;;;25.60;1.00;;;;;;4954294;29;19926;-61
2023/09/10 13:22:11;;;;;;;;;;;25.60;1.00;;;;;;4953723;29;20033;-61
2023/09/10 13:24:38;;;;;;;;;;;25.60;1.00;;;;;;4954172;29;19933;-61
2023/09/10 13:27:05;;;;;;;;;;;25.60;1.00;;;;;;4948295;28;19934;-59
2023/09/10 13:29:32;;;;;;;;;;;25.60;1.00;;;;;;4954132;29;20009;-61
2023/09/10 13:31:59;;;;;;;;;;;25.60;1.00;;;;;;4953777;29;20614;-61
2023/09/10 13:34:26;;;;;;;;;;;25.60;1.00;;;;;;4953800;28;19926;-61
2023/09/10 13:36:53;;;;;;;;;;;25.60;1.00;;;;;;4957085;28;19937;-61
2023/09/10 13:39:19;;;;;;;;;;;25.60;1.00;;;;;;4957407;29;19930;-61
2023/09/10 13:41:46;;;;;;;;;;;25.60;1.00;;;;;;4957585;29;20306;-59
2023/09/10 13:44:13;;;;;;;;;;;25.60;1.00;;;;;;4954793;29;19933;-62
2023/09/10 13:46:40;;;;;;;;;;;25.60;1.00;;;;;;4956064;28;19926;-61
2023/09/10 13:49:10;;;;;;;;;;;25.60;1.00;;;;;;4957152;29;19946;-62
2023/09/10 13:51:37;;;;;;;;;;;25.60;1.00;;;;;;4957158;29;19926;-62
2023/09/10 13:54:05;;;;;;;;;;;25.60;1.00;;;;;;4957143;29;20021;-59
2023/09/10 13:56:32;;;;;;;;;;;25.60;1.00;;;;;;4956149;28;19954;-59
2023/09/10 13:59:00;;;;;;;;;;;25.60;1.00;;;;;;4956810;29;19957;-60
2023/09/10 14:01:27;;;;;;;;;;;25.60;1.00;;;;;;4952742;29;19980;-59
2023/09/10 14:03:55;;;;;;;;;;;25.60;1.00;;;;;;4956915;29;19926;-60
2023/09/10 14:06:23;;;;;;;;;;;25.60;1.00;;;;;;4955461;29;19973;-60
2023/09/10 14:08:50;;;;;;;;;;;25.60;1.00;;;;;;4956979;29;19927;-59
2023/09/10 14:11:17;;;;;;;;;;;25.60;1.00;;;;;;4956860;29;19927;-60
2023/09/10 14:13:44;;;;;;;;;;;25.60;1.00;;;;;;4955190;29;19927;-61
2023/09/10 14:16:10;;;;;;;;;;;25.60;1.00;;;;;;4955683;29;19926;-61
2023/09/10 14:18:39;;;;;;;;;;;25.60;1.00;;;;;;4951114;29;19934;-61
2023/09/10 14:21:07;;;;;;;;;;;25.60;1.00;;;;;;4956396;29;19926;-61
2023/09/10 14:23:34;;;;;;;;;;;25.70;1.00;;;;;;4955715;29;20009;-61
2023/09/10 14:26:01;;;;;;;;;;;25.60;1.00;;;;;;4953191;29;20053;-59
2023/09/10 14:28:27;;;;;;;;;;;25.60;1.00;;;;;;4953233;29;19937;-60
2023/09/10 14:30:54;;;;;;;;;;;25.60;1.00;;;;;;4955506;29;19962;-61
2023/09/10 14:33:21;;;;;;;;;;;25.60;1.00;;;;;;4956130;29;20432;-58
2023/09/10 14:38:37;;;;;;;;;;;25.70;1.00;;;;;;5230652;23;19974;-59